• Join FlightAware (Why Join?)
  • Login
  • US Flag 
09:49AM EDT


 

Airport Tracker/Info


-or-


 

Live Flight TrackerFlight Track Log ✈ SWA1876 ✈ 05-May-2013 ✈ KDEN - KTPA

Flight Track Log - Related Links

Times and Time Zones

All times are in EDT time to prevent confusion due to time zone crossing. See the SWA1876 flight status page for this flight to view local times or setup timezone preferences in your user account.

Time Position Orientation Groundspeed Altitude Reporting Facility
EDT Latitude Longitude Course Direction KTS MPH feet Rate Location/Type
07:32PM 39.8667 -104.5833 109° East 182 209 7,300  Level Denver TRACON
07:34PM 39.8356 -104.4658 109° East 264 304 9,900 2,460 Climbing Denver Center
07:35PM 39.7961 -104.3542 115° Southeast 314 361 13,700 3,360 Climbing Denver Center
07:36PM 39.7506 -104.2222 114° Southeast 329 379 17,700 3,240 Climbing Denver Center
07:37PM 39.7089 -104.1075 115° Southeast 346 398 20,500 2,280 Climbing Denver Center
07:38PM 39.6700 -103.9914 113° Southeast 361 415 22,400 1,260 Climbing Denver Center
07:39PM 39.6128 -103.8519 118° Southeast 403 464 23,200 1,440 Climbing Denver Center
07:40PM 39.5719 -103.7214 112° Southeast 395 455 25,400 1,800 Climbing Denver Center
07:41PM 39.5356 -103.5728 108° East 423 487 27,000 780 Climbing Denver Center
07:42PM 39.4953 -103.4214 109° East 436 502 27,100 720 Climbing Denver Center
07:43PM 39.4539 -103.2683 109° East 445 512 28,500 1,500 Climbing Denver Center
07:44PM 39.4033 -103.0797 109° East 471 542 30,200 1,620 Climbing Denver Center
07:45PM 39.3592 -102.9122 109° East 484 557 31,900 2,040 Climbing Denver Center
07:46PM 39.3139 -102.7458 109° East 485 558 34,500 1,560 Climbing Denver Center
07:47PM 39.2689 -102.5842 110° East 483 556 35,200 960 Climbing Denver Center
07:48PM 39.2258 -102.4278 110° East 483 556 36,600 1,260 Climbing Denver Center
07:49PM 39.1750 -102.2425 109° East 491 565 37,900 1,140 Climbing Denver Center
07:50PM 39.1331 -102.0883 109° East 479 551 39,000 480 Climbing Denver Center
07:51PM 39.0822 -101.9108 110° East 474 545 39,000  Level Denver Center
07:52PM 39.0383 -101.7558 110° East 481 554 39,000  Level Denver Center
07:53PM 38.9869 -101.5767 110° East 478 550 39,000  Level Denver Center
07:54PM 38.9422 -101.4247 111° Southeast 476 548 39,000  Level Denver Center
07:55PM 38.8850 -101.2511 113° Southeast 472 543 39,000  Level Denver Center
07:56PM 38.8358 -101.1017 113° Southeast 475 547 39,000  Level Denver Center
07:58PM 38.7783 -100.9289 113° Southeast 472 543 39,000  Level Denver Center
07:59PM 38.7294 -100.7803 113° Southeast 472 543 39,000  Level Denver Center
08:00PM 38.6794 -100.6314 113° Southeast 474 545 39,000  Level Denver Center
08:01PM 38.6219 -100.4572 113° Southeast 475 547 39,000  Level Denver Center
08:02PM 38.5717 -100.3094 113° Southeast 474 545 39,000  Level Denver Center
08:03PM 38.5128 -100.1367 113° Southeast 474 545 39,000  Level Denver Center
08:04PM 38.4622 -99.9889 114° Southeast 474 545 39,000  Level Denver Center
08:05PM 38.3853 -99.7658 114° Southeast 474 545 39,000  Level Kansas City Center
08:06PM 38.3264 -99.5947 114° Southeast 472 543 39,000  Level Kansas City Center
08:07PM 38.2731 -99.4425 114° Southeast 473 544 39,000  Level Kansas City Center
08:08PM 38.2186 -99.2894 114° Southeast 475 547 39,000  Level Kansas City Center
08:09PM 38.1653 -99.1367 114° Southeast 473 544 39,000  Level Kansas City Center
08:10PM 38.1119 -98.9836 114° Southeast 475 547 39,000  Level Kansas City Center
08:11PM 38.0569 -98.8292 114° Southeast 479 551 39,000  Level Kansas City Center
08:12PM 38.0019 -98.6750 114° Southeast 480 552 39,000  Level Kansas City Center
08:13PM 37.9472 -98.5211 114° Southeast 481 554 39,000  Level Kansas City Center
08:14PM 37.8819 -98.3378 114° Southeast 478 550 39,000  Level Kansas City Center
08:15PM 37.8267 -98.1881 115° Southeast 474 545 39,000  Level Kansas City Center
08:16PM 37.7714 -98.0383 115° Southeast 478 550 39,000  Level Kansas City Center
08:18PM 37.7158 -97.8903 115° Southeast 476 548 39,000  Level Kansas City Center
08:19PM 37.6631 -97.7419 114° Southeast 472 543 39,000  Level Kansas City Center
08:20PM 37.5981 -97.5633 115° Southeast 470 541 39,000  Level Kansas City Center
08:21PM 37.5422 -97.4153 115° Southeast 470 541 39,000  Level Kansas City Center
08:22PM 37.4875 -97.2661 115° Southeast 469 540 39,000  Level Kansas City Center
08:23PM 37.4328 -97.1203 115° Southeast 463 533 39,000  Level Kansas City Center
08:24PM 37.3769 -96.9717 115° Southeast 467 537 39,000  Level Kansas City Center
08:25PM 37.3206 -96.8281 116° Southeast 463 533 39,000  Level Kansas City Center
08:26PM 37.2644 -96.6808 116° Southeast 471 542 39,000  Level Kansas City Center
08:27PM 37.1986 -96.5050 115° Southeast 468 539 39,000  Level Kansas City Center
08:28PM 37.1489 -96.3758 116° Southeast 468 539 39,000  Level Kansas City Center
08:29PM 37.0806 -96.1972 116° Southeast 471 542 39,000  Level Kansas City Center
08:30PM 37.0222 -96.0481 116° Southeast 474 545 39,000  Level Kansas City Center
08:31PM 36.9639 -95.8986 116° Southeast 475 547 39,000  Level Kansas City Center
08:32PM 36.9058 -95.7489 116° Southeast 476 548 39,000  Level Kansas City Center
08:33PM 36.8458 -95.6008 117° Southeast 474 545 39,000  Level Kansas City Center
08:34PM 36.7864 -95.4517 116° Southeast 474 545 39,000  Level Kansas City Center
08:35PM 36.7256 -95.2992 116° Southeast 478 550 39,000  Level Kansas City Center
08:36PM 36.6642 -95.1467 117° Southeast 484 557 39,000  Level Kansas City Center
08:37PM 36.6022 -94.9925 117° Southeast 490 564 39,000  Level Kansas City Center
08:38PM 36.5403 -94.8403 117° Southeast 489 563 39,000  Level Kansas City Center
08:39PM 36.4789 -94.6897 117° Southeast 486 559 39,000  Level Kansas City Center
08:40PM 36.4058 -94.5094 117° Southeast 484 557 39,000 480 Level Kansas City Center
08:41PM 36.3439 -94.3608 117° Southeast 485 558 40,100 900 Climbing Kansas City Center
08:42PM 36.2825 -94.2142 117° Southeast 478 550 40,900 420 Climbing Kansas City Center
08:43PM 36.2056 -94.0675 123° Southeast 480 552 41,000  Climbing Kansas City Center
08:44PM 36.1086 -93.9494 135° Southeast 487 560 41,000  Level Kansas City Center
08:45PM 36.0125 -93.8236 133° Southeast 483 556 41,000  Level Memphis Center
08:46PM 35.9178 -93.7069 135° Southeast 483 556 41,000  Level Memphis Center
08:47PM 35.8208 -93.5853 134° Southeast 483 556 41,000  Level Memphis Center
08:48PM 35.7258 -93.4639 134° Southeast 488 562 41,000  Level Memphis Center
08:49PM 35.6306 -93.3506 136° Southeast 488 562 41,000  Level Memphis Center
08:50PM 35.5353 -93.2322 135° Southeast 488 562 41,000  Level Memphis Center
08:51PM 35.4400 -93.1144 135° Southeast 488 562 41,000  Level Memphis Center
08:52PM 35.3467 -92.9994 135° Southeast 482 555 41,000  Level Memphis Center
08:53PM 35.2511 -92.8794 134° Southeast 482 555 41,000  Level Memphis Center
08:54PM 35.1553 -92.7597 134° Southeast 482 555 41,000  Level Memphis Center
08:55PM 35.0636 -92.6506 136° Southeast 494 568 41,000  Level Memphis Center
08:56PM 34.9675 -92.5314 135° Southeast 494 568 41,000  Level Memphis Center
08:57PM 34.8694 -92.4150 136° Southeast 499 574 41,000  Level Memphis Center
08:58PM 34.7753 -92.2964 134° Southeast 499 574 41,000  Level Memphis Center
08:59PM 34.6769 -92.1781 135° Southeast 499 574 41,000  Level Memphis Center
09:00PM 34.5933 -92.0450 127° Southeast 494 568 41,000  Level Memphis Center
09:01PM 34.5136 -91.9147 127° Southeast 494 568 41,000  Level Memphis Center
09:02PM 34.4317 -91.7825 127° Southeast 488 562 41,000  Level Memphis Center
09:03PM 34.3372 -91.6425 129° Southeast 488 562 41,000  Level Memphis Center
09:04PM 34.2550 -91.5131 128° Southeast 488 562 41,000  Level Memphis Center
09:05PM 34.1747 -91.3839 127° Southeast 489 563 41,000  Level Memphis Center
09:06PM 34.0922 -91.2550 128° Southeast 489 563 41,000  Level Memphis Center
09:07PM 34.0075 -91.1239 128° Southeast 495 570 41,000  Level Memphis Center
09:08PM 33.9247 -90.9956 128° Southeast 495 570 41,000  Level Memphis Center
09:09PM 33.8419 -90.8675 128° Southeast 489 563 41,000  Level Memphis Center
09:10PM 33.7694 -90.7519 127° Southeast 495 570 41,000  Level Memphis Center
09:11PM 33.6861 -90.6217 128° Southeast 495 570 41,000  Level Memphis Center
09:12PM 33.6028 -90.4944 128° Southeast 495 570 41,000  Level Memphis Center
09:13PM 33.5217 -90.3697 128° Southeast 495 570 41,000  Level Memphis Center
09:14PM 33.4358 -90.2403 128° Southeast 495 570 41,000  Level Memphis Center
09:15PM 33.3481 -90.1186 131° Southeast 489 563 41,000  Level Memphis Center
09:16PM 33.2581 -89.9969 131° Southeast 489 563 41,000  Level Memphis Center
09:17PM 33.1719 -89.8733 130° Southeast 483 556 41,000  Level Memphis Center
09:18PM 33.0836 -89.7497 130° Southeast 483 556 41,000  Level Memphis Center
09:19PM 32.9850 -89.6167 131° Southeast 483 556 41,000  Level Memphis Center
09:20PM 32.8944 -89.4964 132° Southeast 483 556 41,000  Level Memphis Center
09:21PM 32.8036 -89.3761 132° Southeast 489 563 41,000  Level Memphis Center
09:22PM 32.7150 -89.2561 131° Southeast 489 563 41,000  Level Memphis Center
09:23PM 32.6242 -89.1339 131° Southeast 489 563 41,000  Level Memphis Center
09:24PM 32.5353 -89.0144 131° Southeast 489 563 41,000  Level Memphis Center
09:25PM 32.4461 -88.8925 131° Southeast 489 563 41,000  Level Memphis Center
09:26PM 32.3633 -88.7686 128° Southeast 489 563 41,000  Level Memphis Center
09:29PM 32.2264 -88.4114 114° Southeast 492 566 41,000  Level Atlanta Center
09:30PM 32.1689 -88.2664 115° Southeast 486 559 41,000  Level Atlanta Center
09:31PM 32.1111 -88.1189 115° Southeast 486 559 41,000  Level Atlanta Center
09:32PM 32.0536 -87.9694 114° Southeast 491 565 41,000  Level Atlanta Center
09:33PM 31.9956 -87.8222 115° Southeast 496 571 41,000  Level Atlanta Center
09:35PM 31.8192 -87.5158 124° Southeast 498 573 41,000  Level Jacksonville Center
09:36PM 31.7297 -87.3917 130° Southeast 493 567 41,000  Level Jacksonville Center
09:37PM 31.6481 -87.2828 131° Southeast 493 567 41,000  Level Jacksonville Center
09:38PM 31.5622 -87.1617 130° Southeast 493 567 41,000  Level Jacksonville Center
09:39PM 31.4686 -87.0258 129° Southeast 488 562 41,000  Level Jacksonville Center
09:40PM 31.3844 -86.9175 132° Southeast 488 562 41,000  Level Jacksonville Center
09:41PM 31.2886 -86.7822 130° Southeast 494 568 41,000  Level Jacksonville Center
09:42PM 31.2022 -86.6644 131° Southeast 494 568 41,000  Level Jacksonville Center
09:43PM 31.1119 -86.5419 131° Southeast 494 568 41,000  Level Jacksonville Center
09:44PM 31.0356 -86.4347 130° Southeast 489 563 41,000  Level Jacksonville Center
09:45PM 30.9492 -86.3153 130° Southeast 489 563 41,000 -300 Level Jacksonville Center
09:46PM 30.8606 -86.1933 130° Southeast 489 563 40,500 -780 Descending Jacksonville Center
09:47PM 30.7739 -86.0744 130° Southeast 489 563 39,500 -960 Descending Jacksonville Center
09:48PM 30.6869 -85.9556 130° Southeast 489 563 38,600 -900 Descending Jacksonville Center
09:49PM 30.5958 -85.8367 132° Southeast 489 563 37,700 -840 Descending Jacksonville Center
09:50PM 30.5086 -85.7183 131° Southeast 489 563 37,000 -360 Descending Jacksonville Center
09:51PM 30.4236 -85.6003 130° Southeast 484 557 37,000  Level Jacksonville Center
09:52PM 30.3361 -85.4822 131° Southeast 484 557 37,000  Level Jacksonville Center
09:53PM 30.2467 -85.3619 131° Southeast 484 557 37,000 -60 Level Jacksonville Center
09:54PM 30.1550 -85.2467 133° Southeast 484 557 36,900 -600 Descending Jacksonville Center
09:55PM 30.0672 -85.1294 131° Southeast 484 557 35,900 -1,020 Descending Jacksonville Center
09:56PM 29.9775 -85.0075 130° Southeast 489 563 34,900 -1,020 Descending Jacksonville Center
09:58PM 29.8017 -84.7811 132° Southeast 483 556 32,900 -1,020 Descending Jacksonville Center
09:59PM 29.7175 -84.6717 132° Southeast 472 543 31,900 -1,620 Descending Jacksonville Center
10:00PM 29.6356 -84.5653 132° Southeast 460 529 29,700 -2,400 Descending Jacksonville Center
10:01PM 29.5533 -84.4586 132° Southeast 447 514 27,200 -2,340 Descending Jacksonville Center
10:02PM 29.4753 -84.3525 130° Southeast 442 509 25,000 -1,140 Descending Jacksonville Center
10:03PM 29.3992 -84.2561 132° Southeast 428 493 25,000  Level Jacksonville Center
10:04PM 29.3208 -84.1550 132° Southeast 422 486 25,000  Level Jacksonville Center
10:05PM 29.2383 -84.0492 132° Southeast 429 494 25,000  Level Jacksonville Center
10:06PM 29.1558 -83.9364 130° Southeast 443 510 25,000  Level Jacksonville Center
10:07PM 29.0711 -83.8286 132° Southeast 454 522 25,000  Level Jacksonville Center
10:08PM 28.9842 -83.7186 132° Southeast 454 522 25,000  Level Jacksonville Center
10:09PM 28.8992 -83.6111 132° Southeast 454 522 25,000  Level Jacksonville Center
10:10PM 28.8142 -83.5017 132° Southeast 454 522 25,000 -780 Level Jacksonville Center
10:11PM 28.7292 -83.3944 132° Southeast 454 522 23,500 -2,400 Descending Jacksonville Center
10:12PM 28.6397 -83.2806 132° Southeast 449 517 20,300 -2,880 Descending Jacksonville Center
10:13PM 28.5608 -83.1808 132° Southeast 444 511 17,800 -2,700 Descending Jacksonville Center
10:14PM 28.4836 -83.0861 133° Southeast 426 490 15,000 -2,340 Descending Jacksonville Center
10:15PM 28.4000 -82.9833 133° Southeast 387 445 13,000 -1,500 Descending Tampa TRACON
10:16PM 28.3333 -82.9000 132° Southeast 365 420 11,900 -1,080 Descending Tampa TRACON
10:17PM 28.2833 -82.8167 124° Southeast 333 383 10,900 -1,320 Descending Tampa TRACON
10:18PM 28.2333 -82.7000 116° Southeast 319 367 9,100 -1,440 Descending Tampa TRACON
10:19PM 28.2167 -82.6167 103° East 303 349 8,000 -1,860 Descending Tampa TRACON
10:20PM 28.2000 -82.5333 103° East 275 316 5,600 -1,560 Descending Tampa TRACON
10:21PM 28.1667 -82.5000 139° Southeast 186 214 5,200 -1,260 Descending Tampa TRACON
10:22PM 28.1333 -82.5000 180° South 142 163 3,400 -1,560 Descending Tampa TRACON
10:23PM 28.0833 -82.5167 196° South 142 163 2,000 -1,080 Descending Tampa TRACON
10:24PM 28.0333 -82.5333 196° South 153 176 1,100 -780 Descending Tampa TRACON
10:25PM 28.0000 -82.5333 180° South 136 157 400 -720 Descending Tampa TRACON